Time;durP1;ratioP1;P1;durP2;ratioP2;P2;SDS_P1;SDS_P2;PMS_P1;PMS_P2;Temp;Humidity;BMP_temperature;BMP_pressure;BME280_temperature;BME280_humidity;BME280_pressure;Samples;Min_cycle;Max_cycle;Signal;HPM_P1;HPM_P2
2022/08/18 00:02:21;;;;;;;22.98;17.95;;;15.80;99.90;;;;;;5026848;28;20057;-68
2022/08/18 00:04:46;;;;;;;25.58;20.02;;;15.80;99.90;;;;;;5026938;28;20510;-68
2022/08/18 00:07:15;;;;;;;25.05;20.35;;;15.90;99.90;;;;;;5028534;28;20025;-68
2022/08/18 00:09:42;;;;;;;27.77;21.17;;;15.90;99.90;;;;;;5023183;28;20029;-68
2022/08/18 00:12:32;;;;;;;28.33;21.60;;;15.90;99.90;;;;;;5026316;28;20378;-68
2022/08/18 00:15:04;;;;;;;24.48;19.33;;;16.00;99.90;;;;;;5024633;28;20067;-68
2022/08/18 00:17:30;;;;;;;28.65;21.00;;;16.00;99.90;;;;;;5008159;28;20546;-69
2022/08/18 00:19:57;;;;;;;24.88;19.48;;;16.00;99.90;;;;;;5010573;28;20053;-68
2022/08/18 00:22:22;;;;;;;27.65;20.35;;;16.00;99.90;;;;;;5026448;28;20491;-68
2022/08/18 00:24:54;;;;;;;26.77;18.23;;;16.00;99.90;;;;;;5026645;28;20029;-68
2022/08/18 00:27:23;;;;;;;25.35;18.98;;;16.10;99.90;;;;;;5028208;28;20022;-68
2022/08/18 00:29:50;;;;;;;20.90;16.97;;;16.10;99.90;;;;;;5027091;28;20430;-68
2022/08/18 00:32:19;;;;;;;21.35;16.05;;;16.00;99.90;;;;;;5027774;28;20033;-68
2022/08/18 00:34:44;;;;;;;25.77;18.25;;;16.00;99.90;;;;;;5026963;28;20068;-68
2022/08/18 00:37:10;;;;;;;26.08;19.67;;;16.10;99.90;;;;;;5026278;28;20546;-68
2022/08/18 00:39:36;;;;;;;27.85;20.25;;;16.10;99.90;;;;;;5027210;28;20029;-68
2022/08/18 00:42:17;;;;;;;27.08;21.48;;;16.00;99.90;;;;;;5027278;28;20035;-68
2022/08/18 00:44:42;;;;;;;30.35;20.33;;;16.10;99.90;;;;;;5026881;28;20061;-68
2022/08/18 00:47:08;;;;;;;31.33;20.77;;;16.10;99.90;;;;;;5027337;28;20065;-68
2022/08/18 00:49:36;;;;;;;33.63;22.55;;;16.10;99.90;;;;;;5009508;28;20124;-68
2022/08/18 00:52:03;;;;;;;32.10;22.20;;;16.10;99.90;;;;;;5026678;28;20045;-68
2022/08/18 00:54:32;;;;;;;40.90;25.48;;;16.10;99.90;;;;;;5026854;28;20117;-69
2022/08/18 00:57:02;;;;;;;34.25;24.98;;;16.10;99.90;;;;;;5027024;28;20025;-68
2022/08/18 00:59:34;;;;;;;33.65;24.33;;;16.20;99.90;;;;;;5026908;28;20083;-69
2022/08/18 01:02:03;;;;;;;37.00;27.08;;;16.20;99.90;;;;;;5026696;28;20033;-68
2022/08/18 01:04:35;;;;;;;39.87;26.33;;;16.20;99.90;;;;;;5026696;28;20077;-68
2022/08/18 01:07:05;;;;;;;44.75;28.08;;;16.30;99.90;;;;;;5025634;28;20040;-69
2022/08/18 01:09:31;;;;;;;45.47;28.02;;;16.30;99.90;;;;;;5024512;28;20037;-68
2022/08/18 01:11:57;;;;;;;38.35;25.98;;;16.30;99.90;;;;;;5026546;28;20041;-68
2022/08/18 01:14:23;;;;;;;39.83;27.35;;;16.30;99.90;;;;;;5026058;28;20029;-68
2022/08/18 01:22:36;;;;;;;34.67;24.83;;;16.30;99.90;;;;;;5026653;28;20395;-68
2022/08/18 01:27:49;;;;;;;35.80;25.67;;;16.30;99.90;;;;;;5023537;28;20383;-69
2022/08/18 01:30:17;;;;;;;38.70;25.35;;;16.40;99.90;;;;;;5027079;28;20033;-68
2022/08/18 01:32:44;;;;;;;41.40;25.98;;;16.40;99.90;;;;;;5024776;28;20063;-69
2022/08/18 01:35:13;;;;;;;40.35;27.02;;;16.30;99.90;;;;;;5027265;28;20104;-68
2022/08/18 01:37:40;;;;;;;44.90;27.70;;;16.40;99.90;;;;;;5026570;28;20037;-68
2022/08/18 01:40:08;;;;;;;39.83;26.67;;;16.30;99.90;;;;;;5026704;28;20037;-68
2022/08/18 01:42:34;;;;;;;47.80;29.20;;;16.30;99.90;;;;;;5027748;28;20038;-68
2022/08/18 01:45:02;;;;;;;39.40;24.75;;;16.20;99.90;;;;;;5027592;28;20025;-69
2022/08/18 01:47:30;;;;;;;35.47;25.00;;;16.20;99.90;;;;;;5026872;28;20029;-68
2022/08/18 01:49:57;;;;;;;35.17;24.63;;;16.20;99.90;;;;;;5026366;28;20124;-68
2022/08/18 01:52:23;;;;;;;37.40;25.23;;;16.10;99.90;;;;;;5026509;28;20087;-68
2022/08/18 01:54:50;;;;;;;38.55;25.33;;;16.10;99.90;;;;;;5026061;28;20040;-68
2022/08/18 01:57:17;;;;;;;36.35;24.58;;;16.10;99.90;;;;;;5023481;28;20117;-68
2022/08/18 01:59:43;;;;;;;33.20;24.13;;;16.10;99.90;;;;;;5026890;28;20087;-68
2022/08/18 02:02:14;;;;;;;37.40;24.98;;;16.10;99.90;;;;;;5008662;28;20029;-68
2022/08/18 02:04:41;;;;;;;36.38;26.17;;;16.10;99.90;;;;;;5023393;28;20644;-67
2022/08/18 02:07:09;;;;;;;39.78;26.15;;;16.10;99.90;;;;;;5024700;28;20044;-68
2022/08/18 02:09:36;;;;;;;39.35;26.98;;;16.00;99.90;;;;;;5026024;28;20056;-68
2022/08/18 02:12:04;;;;;;;39.40;26.80;;;16.00;99.90;;;;;;5008954;28;20037;-68
2022/08/18 02:14:30;;;;;;;41.55;27.23;;;16.00;99.90;;;;;;5007132;28;20049;-68
2022/08/18 02:16:56;;;;;;;44.35;27.20;;;15.90;99.90;;;;;;5025811;28;20408;-69
2022/08/18 02:19:22;;;;;;;46.70;28.17;;;15.90;99.90;;;;;;5024643;28;20068;-68
2022/08/18 02:21:50;;;;;;;37.47;25.45;;;15.80;99.90;;;;;;5029038;28;20061;-68
2022/08/18 02:24:16;;;;;;;39.67;26.90;;;15.90;99.90;;;;;;5029677;28;20041;-68
2022/08/18 02:26:43;;;;;;;37.55;24.73;;;15.90;99.90;;;;;;5030869;28;20136;-67
2022/08/18 02:29:08;;;;;;;35.83;23.83;;;15.80;99.90;;;;;;5029319;28;20045;-68
2022/08/18 02:31:34;;;;;;;33.28;23.17;;;15.80;99.90;;;;;;5030614;28;20040;-68
2022/08/18 02:34:00;;;;;;;32.92;21.70;;;15.80;99.90;;;;;;5008776;28;20045;-68
2022/08/18 02:36:27;;;;;;;28.20;19.05;;;15.80;99.90;;;;;;5012195;28;20029;-68
2022/08/18 02:38:53;;;;;;;31.90;20.85;;;15.60;99.90;;;;;;5029913;28;20088;-68
2022/08/18 02:41:19;;;;;;;28.33;21.10;;;15.50;99.90;;;;;;5029953;28;20098;-68
2022/08/18 02:43:47;;;;;;;37.75;26.55;;;15.50;99.90;;;;;;5012044;28;20034;-68
2022/08/18 02:46:13;;;;;;;55.58;31.30;;;15.50;99.90;;;;;;5030129;28;20030;-67
2022/08/18 02:48:39;;;;;;;49.92;29.77;;;15.50;99.90;;;;;;5028720;28;20041;-68
2022/08/18 02:51:12;;;;;;;37.70;24.67;;;15.60;99.90;;;;;;5029639;28;20502;-68
2022/08/18 02:53:41;;;;;;;43.08;27.60;;;15.70;99.90;;;;;;5029418;28;20029;-68
2022/08/18 02:56:19;;;;;;;57.25;31.60;;;15.70;99.90;;;;;;5030372;28;20025;-68
2022/08/18 02:58:45;;;;;;;51.60;30.80;;;15.80;99.90;;;;;;5028027;28;20223;-68
2022/08/18 03:01:11;;;;;;;48.97;30.38;;;15.80;99.90;;;;;;5029480;28;20116;-69
2022/08/18 03:03:37;;;;;;;39.05;28.75;;;15.90;99.90;;;;;;5028909;28;20167;-69
2022/08/18 03:06:04;;;;;;;50.45;31.30;;;15.90;99.90;;;;;;5030062;28;20065;-68
2022/08/18 03:08:29;;;;;;;42.80;28.48;;;15.90;99.90;;;;;;5027508;28;20033;-68
2022/08/18 03:10:55;;;;;;;45.78;29.23;;;16.00;99.90;;;;;;5029538;28;20506;-68
2022/08/18 03:13:21;;;;;;;44.65;28.67;;;16.00;99.90;;;;;;5028090;28;20767;-68
2022/08/18 03:15:47;;;;;;;45.45;29.30;;;16.00;99.90;;;;;;5025048;28;20096;-69
2022/08/18 03:18:13;;;;;;;47.03;28.73;;;16.00;99.90;;;;;;5027674;28;20407;-69
2022/08/18 03:20:39;;;;;;;44.92;29.38;;;16.00;99.90;;;;;;5005632;28;20029;-68
2022/08/18 03:23:05;;;;;;;46.15;29.60;;;16.10;99.90;;;;;;5028491;28;20037;-69
2022/08/18 03:25:31;;;;;;;42.55;28.27;;;16.10;99.90;;;;;;5029190;28;20028;-68
2022/08/18 03:27:57;;;;;;;43.50;29.08;;;16.10;99.90;;;;;;5027868;28;20030;-69
2022/08/18 03:30:22;;;;;;;47.03;29.67;;;16.10;99.90;;;;;;5027368;28;20510;-72
2022/08/18 03:32:49;;;;;;;47.92;30.08;;;16.10;99.90;;;;;;5029477;28;20037;-69
2022/08/18 03:35:15;;;;;;;49.60;31.63;;;16.00;99.90;;;;;;5028290;28;20403;-69
2022/08/18 03:37:41;;;;;;;52.35;33.05;;;16.00;99.90;;;;;;5028949;28;20023;-68
2022/08/18 03:40:09;;;;;;;54.13;32.75;;;16.10;99.90;;;;;;5029404;28;20029;-69
2022/08/18 03:42:36;;;;;;;52.38;32.58;;;16.10;99.90;;;;;;5028646;28;20037;-68
2022/08/18 03:45:02;;;;;;;61.30;35.75;;;16.10;99.90;;;;;;5011615;28;20038;-69
2022/08/18 03:47:27;;;;;;;61.45;35.90;;;16.10;99.90;;;;;;5028040;28;20387;-68
2022/08/18 03:49:53;;;;;;;59.50;34.85;;;16.10;99.90;;;;;;5027905;28;20550;-68
2022/08/18 03:52:19;;;;;;;69.32;37.10;;;16.10;99.90;;;;;;5028725;28;20406;-68
2022/08/18 03:54:45;;;;;;;69.25;37.92;;;16.10;99.90;;;;;;5028314;28;20052;-68
2022/08/18 03:57:11;;;;;;;55.45;33.38;;;16.10;99.90;;;;;;5027937;28;20036;-69
2022/08/18 03:59:40;;;;;;;57.28;33.53;;;16.10;99.90;;;;;;5027576;28;20087;-69
2022/08/18 04:02:06;;;;;;;54.17;31.17;;;16.10;99.90;;;;;;5028028;28;20528;-67
2022/08/18 04:04:32;;;;;;;60.08;34.30;;;16.10;99.90;;;;;;5027796;28;20436;-68
2022/08/18 04:07:10;;;;;;;62.13;36.22;;;16.10;99.90;;;;;;5028282;28;20033;-67
2022/08/18 04:09:37;;;;;;;54.88;32.75;;;16.10;99.90;;;;;;5028980;28;20045;-68
2022/08/18 04:12:12;;;;;;;62.22;34.35;;;16.10;99.90;;;;;;5027609;28;20033;-69
2022/08/18 04:14:45;;;;;;;58.15;33.25;;;16.10;99.90;;;;;;5028534;28;20030;-68
2022/08/18 04:17:11;;;;;;;59.65;34.53;;;16.10;99.90;;;;;;5028193;28;20034;-68
2022/08/18 04:19:37;;;;;;;59.42;33.10;;;16.10;99.90;;;;;;5009233;28;20096;-67
2022/08/18 04:22:03;;;;;;;50.42;31.30;;;16.20;99.90;;;;;;5027825;28;20087;-67
2022/08/18 04:24:30;;;;;;;51.38;30.70;;;16.10;99.90;;;;;;5027583;28;20455;-68
2022/08/18 04:26:58;;;;;;;52.75;31.88;;;16.10;99.90;;;;;;5025143;28;20372;-68
2022/08/18 04:29:23;;;;;;;51.60;32.35;;;16.10;99.90;;;;;;5027135;28;20033;-68
2022/08/18 04:31:50;;;;;;;51.95;32.85;;;16.10;99.90;;;;;;5027911;28;20060;-68
2022/08/18 04:34:19;;;;;;;54.60;33.63;;;16.20;99.90;;;;;;5026250;28;20029;-68
2022/08/18 04:36:45;;;;;;;56.42;33.38;;;16.10;99.90;;;;;;5027496;28;20079;-68
2022/08/18 04:39:12;;;;;;;44.72;30.50;;;16.10;99.90;;;;;;5027224;28;20037;-68
2022/08/18 04:41:39;;;;;;;55.75;35.67;;;16.20;99.90;;;;;;5022603;28;20060;-67
2022/08/18 04:44:07;;;;;;;61.28;37.78;;;16.20;99.90;;;;;;5002071;28;20041;-67
2022/08/18 04:46:39;;;;;;;65.35;36.83;;;16.30;99.90;;;;;;5027005;28;20127;-67
2022/08/18 04:49:07;;;;;;;62.85;36.70;;;16.30;99.90;;;;;;5022180;28;20042;-67
2022/08/18 04:51:34;;;;;;;57.88;34.58;;;16.30;99.90;;;;;;5012122;28;20042;-68
2022/08/18 04:53:59;;;;;;;96.63;41.42;;;16.30;99.90;;;;;;5017324;28;20782;-68
2022/08/18 04:56:29;;;;;;;70.95;39.45;;;16.30;99.90;;;;;;5003536;28;20125;-68
2022/08/18 04:58:57;;;;;;;62.50;35.40;;;16.30;99.90;;;;;;5009658;28;20033;-67
2022/08/18 05:01:29;;;;;;;87.72;40.80;;;16.30;99.90;;;;;;5027242;28;20029;-68
2022/08/18 05:03:57;;;;;;;67.22;37.47;;;16.40;99.90;;;;;;5027426;28;20064;-68
2022/08/18 05:06:25;;;;;;;59.78;34.30;;;16.40;99.90;;;;;;5009439;28;20039;-69
2022/08/18 05:08:53;;;;;;;59.15;34.65;;;16.40;99.90;;;;;;5027209;28;20036;-68
2022/08/18 05:11:20;;;;;;;61.45;33.60;;;16.40;99.90;;;;;;5026882;28;20144;-68
2022/08/18 05:13:47;;;;;;;57.97;33.92;;;16.40;99.90;;;;;;5027389;28;20029;-68
2022/08/18 05:16:13;;;;;;;57.03;34.30;;;16.50;99.90;;;;;;5026635;28;20083;-68
2022/08/18 05:18:39;;;;;;;68.55;36.45;;;16.50;99.90;;;;;;5026779;28;20050;-68
2022/08/18 05:21:15;;;;;;;59.75;34.78;;;16.50;99.90;;;;;;5027435;28;20068;-68
2022/08/18 05:23:42;;;;;;;61.13;35.38;;;16.50;99.90;;;;;;5002348;28;20046;-68
2022/08/18 05:26:09;;;;;;;55.67;32.88;;;16.60;99.90;;;;;;5023469;28;20113;-68
2022/08/18 05:28:36;;;;;;;55.10;34.80;;;16.60;99.90;;;;;;5009244;28;20487;-68
2022/08/18 05:31:28;;;;;;;58.83;34.85;;;16.60;99.90;;;;;;5026113;28;20045;-68
2022/08/18 05:33:55;;;;;;;72.68;38.25;;;16.70;99.90;;;;;;5020761;28;20043;-68
2022/08/18 05:36:23;;;;;;;54.78;33.30;;;16.70;99.90;;;;;;5023244;28;20038;-69
2022/08/18 05:39:11;;;;;;;50.67;32.38;;;16.70;99.90;;;;;;5017477;28;20037;-68
2022/08/18 05:41:40;;;;;;;49.38;31.02;;;16.70;99.90;;;;;;5026881;28;20033;-68
2022/08/18 05:44:08;;;;;;;53.25;33.97;;;16.70;99.90;;;;;;5026538;28;20890;-68
2022/08/18 05:46:44;;;;;;;56.00;33.05;;;16.80;99.90;;;;;;5009468;28;20042;-68
2022/08/18 05:49:12;;;;;;;58.42;34.60;;;16.80;99.90;;;;;;5008723;28;20031;-68
2022/08/18 05:51:42;;;;;;;58.28;33.42;;;16.80;99.90;;;;;;5024957;28;20102;-68
2022/08/18 05:56:55;;;;;;;63.63;35.20;;;16.90;99.90;;;;;;5031193;28;20540;-68
2022/08/18 05:59:35;;;;;;;61.03;36.83;;;16.90;99.90;;;;;;5029470;28;20095;-68
2022/08/18 06:02:06;;;;;;;70.38;37.97;;;16.90;99.90;;;;;;5029240;28;20032;-68
2022/08/18 06:05:01;;;;;;;66.55;37.55;;;17.00;99.90;;;;;;5029371;28;20068;-68
2022/08/18 06:07:36;;;;;;;57.15;35.28;;;17.00;99.90;;;;;;5012629;28;20056;-68
2022/08/18 06:10:05;;;;;;;66.80;37.58;;;17.10;99.90;;;;;;5028138;28;20068;-68
2022/08/18 06:12:32;;;;;;;76.37;39.17;;;17.10;99.90;;;;;;5030865;28;20037;-68
2022/08/18 06:15:15;;;;;;;68.30;38.33;;;17.10;99.90;;;;;;5029710;28;20088;-67
2022/08/18 06:17:41;;;;;;;63.28;36.53;;;17.20;99.90;;;;;;5028106;28;20033;-67
2022/08/18 06:20:31;;;;;;;57.88;35.65;;;17.20;99.90;;;;;;5030263;28;20071;-67
2022/08/18 06:23:18;;;;;;;62.42;36.20;;;17.20;99.90;;;;;;5027698;28;20022;-68
2022/08/18 06:26:12;;;;;;;71.05;38.60;;;17.30;99.90;;;;;;5029411;28;20037;-67
2022/08/18 06:29:12;;;;;;;62.42;36.83;;;17.30;99.90;;;;;;5028788;28;20036;-68
2022/08/18 06:31:56;;;;;;;61.80;36.13;;;17.30;99.90;;;;;;5029575;28;20041;-68
2022/08/18 06:34:46;;;;;;;57.83;35.40;;;17.40;99.90;;;;;;5028412;28;20116;-68
2022/08/18 06:37:20;;;;;;;64.00;37.20;;;17.40;99.90;;;;;;5027514;28;20029;-68
2022/08/18 06:39:49;;;;;;;49.45;33.58;;;17.40;99.90;;;;;;5023197;28;20037;-68
2022/08/18 06:42:24;;;;;;;51.95;34.20;;;17.40;99.90;;;;;;5012508;28;20198;-68
2022/08/18 06:44:59;;;;;;;58.08;34.28;;;17.40;99.90;;;;;;5027004;28;20043;-67
2022/08/18 06:47:47;;;;;;;59.05;35.45;;;17.40;99.90;;;;;;5028079;28;20037;-67
2022/08/18 06:50:33;;;;;;;59.97;35.70;;;17.40;99.90;;;;;;5025091;28;20044;-68
2022/08/18 06:53:02;;;;;;;54.78;33.72;;;17.40;99.90;;;;;;5021176;28;20068;-68
2022/08/18 06:55:44;;;;;;;41.20;31.13;;;17.40;99.90;;;;;;5024727;28;20041;-68
2022/08/18 06:58:16;;;;;;;50.60;33.45;;;17.50;99.90;;;;;;5028244;28;20037;-68
2022/08/18 07:00:51;;;;;;;50.40;32.72;;;17.60;99.90;;;;;;5032004;28;20116;-67
2022/08/18 07:03:20;;;;;;;53.53;33.30;;;17.60;99.90;;;;;;5027921;28;20443;-69
2022/08/18 07:06:07;;;;;;;57.22;36.33;;;17.60;99.90;;;;;;5025099;28;20037;-67
2022/08/18 07:08:42;;;;;;;59.58;37.05;;;17.60;99.90;;;;;;5027024;28;20817;-67
2022/08/18 07:11:19;;;;;;;62.72;37.22;;;17.70;99.90;;;;;;5015446;28;20078;-67
2022/08/18 07:13:48;;;;;;;52.88;34.15;;;17.70;99.90;;;;;;5035087;28;20032;-68
2022/08/18 07:16:15;;;;;;;55.53;35.05;;;17.70;99.90;;;;;;5034270;28;20040;-68
2022/08/18 07:18:42;;;;;;;57.85;36.40;;;17.70;99.90;;;;;;5030941;28;20063;-68
2022/08/18 07:21:08;;;;;;;75.13;37.17;;;17.70;99.90;;;;;;5009316;28;20034;-68
2022/08/18 07:23:40;;;;;;;55.75;34.97;;;17.80;99.90;;;;;;5027554;28;20442;-68
2022/08/18 07:26:12;;;;;;;51.75;34.75;;;17.80;99.90;;;;;;5009232;28;20030;-68
2022/08/18 07:28:45;;;;;;;57.85;35.35;;;17.80;99.90;;;;;;5012185;28;20037;-69
2022/08/18 07:31:38;;;;;;;38.67;30.50;;;17.80;99.90;;;;;;5022865;28;20488;-67
2022/08/18 07:34:19;;;;;;;54.20;35.72;;;17.90;99.90;;;;;;5025168;28;20036;-69
2022/08/18 07:37:06;;;;;;;54.75;34.88;;;18.00;99.90;;;;;;5032584;28;20033;-68
2022/08/18 07:39:35;;;;;;;46.90;33.85;;;18.10;99.90;;;;;;5027134;28;20065;-68
2022/08/18 07:42:08;;;;;;;54.75;36.70;;;18.10;99.90;;;;;;5020605;28;20034;-69
2022/08/18 07:44:42;;;;;;;49.50;34.75;;;18.20;99.90;;;;;;5027229;28;20040;-68
2022/08/18 07:47:21;;;;;;;41.65;32.60;;;18.30;99.90;;;;;;5024341;28;20033;-68
2022/08/18 07:49:47;;;;;;;48.05;35.55;;;18.50;99.90;;;;;;5025289;28;20033;-68
2022/08/18 07:52:20;;;;;;;46.08;34.33;;;18.50;99.90;;;;;;5028550;28;20025;-67
2022/08/18 07:55:23;;;;;;;43.80;32.80;;;18.60;99.90;;;;;;5025501;28;20077;-67
2022/08/18 07:58:16;;;;;;;47.25;34.70;;;18.60;99.90;;;;;;5026004;28;20051;-68
2022/08/18 08:01:05;;;;;;;50.00;35.55;;;18.60;99.90;;;;;;5024311;28;20060;-67
2022/08/18 08:03:55;;;;;;;44.30;33.97;;;18.70;99.90;;;;;;5022462;28;20033;-68
2022/08/18 08:07:00;;;;;;;45.90;34.13;;;18.70;99.90;;;;;;5021186;28;20484;-68
2022/08/18 08:09:35;;;;;;;43.40;33.15;;;18.70;99.90;;;;;;5010642;28;20053;-69
2022/08/18 08:12:42;;;;;;;44.47;33.90;;;18.80;99.90;;;;;;5024300;28;20032;-69
2022/08/18 08:15:30;;;;;;;40.40;32.17;;;18.70;99.90;;;;;;5025797;28;20123;-68
2022/08/18 08:18:17;;;;;;;42.72;32.92;;;18.80;99.90;;;;;;5028016;28;20037;-69
2022/08/18 08:20:56;;;;;;;42.17;32.88;;;18.90;99.90;;;;;;5006337;28;20088;-68
2022/08/18 08:23:43;;;;;;;34.50;28.95;;;18.90;99.90;;;;;;5005771;28;20042;-69
2022/08/18 08:26:20;;;;;;;36.85;30.27;;;18.90;99.90;;;;;;5005572;28;20120;-69
2022/08/18 08:29:24;;;;;;;43.83;34.67;;;18.90;99.90;;;;;;5006458;28;20073;-67
2022/08/18 08:32:11;;;;;;;47.65;35.85;;;18.90;99.90;;;;;;5003905;28;20087;-69
2022/08/18 08:34:42;;;;;;;43.85;34.05;;;19.00;99.90;;;;;;5006530;28;20181;-69
2022/08/18 08:37:23;;;;;;;41.67;33.45;;;19.00;99.90;;;;;;5002227;28;20056;-69
2022/08/18 08:39:56;;;;;;;46.35;34.70;;;19.10;99.90;;;;;;4996551;28;20163;-69
2022/08/18 08:42:31;;;;;;;46.30;34.50;;;19.10;99.90;;;;;;5014851;28;20069;-68
2022/08/18 08:45:03;;;;;;;41.45;33.25;;;19.20;99.90;;;;;;5021433;28;20121;-68
2022/08/18 08:47:36;;;;;;;46.45;36.47;;;19.30;99.90;;;;;;5007022;28;20021;-69
2022/08/18 08:50:06;;;;;;;49.88;38.25;;;19.30;99.90;;;;;;5009032;28;20029;-70
2022/08/18 08:52:45;;;;;;;38.47;32.80;;;19.40;99.90;;;;;;5012849;28;20038;-69
2022/08/18 08:55:24;;;;;;;40.20;31.23;;;19.40;99.90;;;;;;5006620;28;20064;-69
2022/08/18 08:58:05;;;;;;;40.53;34.35;;;19.40;99.90;;;;;;5006879;28;20026;-69
2022/08/18 09:00:31;;;;;;;37.10;31.77;;;19.50;99.90;;;;;;5002513;28;20030;-70
2022/08/18 09:03:26;;;;;;;44.55;37.75;;;19.70;99.90;;;;;;5000785;28;20080;-69
2022/08/18 09:05:51;;;;;;;34.03;30.40;;;19.90;99.90;;;;;;5004160;28;20041;-69
2022/08/18 09:08:59;;;;;;;37.00;32.95;;;20.10;99.90;;;;;;5008081;28;20388;-69
2022/08/18 09:11:31;;;;;;;32.70;28.90;;;20.30;99.90;;;;;;4979489;28;20049;-68
2022/08/18 09:14:34;;;;;;;32.90;29.40;;;20.40;99.90;;;;;;5008483;28;20034;-69
2022/08/18 09:17:22;;;;;;;34.03;30.20;;;20.60;99.90;;;;;;5008079;28;20040;-69
2022/08/18 09:19:55;;;;;;;31.63;26.47;;;20.80;99.90;;;;;;5021970;28;20144;-70
2022/08/18 09:22:53;;;;;;;27.38;24.52;;;21.00;99.90;;;;;;5027443;28;20048;-69
2022/08/18 09:25:31;;;;;;;34.63;30.92;;;21.20;99.90;;;;;;5027683;28;20045;-69
2022/08/18 09:28:10;;;;;;;28.53;25.63;;;21.40;99.90;;;;;;5027794;28;20064;-69
2022/08/18 09:31:02;;;;;;;27.98;24.95;;;21.40;99.90;;;;;;5028367;28;20041;-70
2022/08/18 09:33:43;;;;;;;25.58;23.00;;;21.60;99.90;;;;;;5020231;28;20067;-69
2022/08/18 09:36:19;;;;;;;24.30;21.77;;;21.70;99.90;;;;;;5027904;28;20029;-68
2022/08/18 09:41:56;;;;;;;27.65;24.73;;;22.00;99.90;;;;;;5028120;28;20168;-69
2022/08/18 09:44:40;;;;;;;23.45;21.15;;;22.20;99.90;;;;;;5027824;28;20040;-69
2022/08/18 09:47:07;;;;;;;23.70;21.30;;;22.30;99.90;;;;;;5027973;28;20052;-68
2022/08/18 09:49:45;;;;;;;24.02;21.38;;;22.40;99.90;;;;;;5027832;28;20037;-68
2022/08/18 09:52:19;;;;;;;25.52;22.73;;;22.20;99.90;;;;;;5027788;28;20037;-69
2022/08/18 09:55:14;;;;;;;30.55;27.40;;;22.00;99.90;;;;;;5028050;28;20435;-69
2022/08/18 09:57:40;;;;;;;29.15;25.08;;;21.80;99.90;;;;;;5027831;28;20044;-70
2022/08/18 10:00:11;;;;;;;28.13;24.42;;;21.60;99.90;;;;;;5027977;28;20041;-68
2022/08/18 10:02:40;;;;;;;26.33;23.60;;;21.30;99.90;;;;;;5028092;28;20053;-69
2022/08/18 10:05:21;;;;;;;25.65;23.05;;;21.30;99.90;;;;;;5026632;28;20034;-69
2022/08/18 10:07:47;;;;;;;24.73;22.13;;;21.50;99.90;;;;;;5027981;28;20382;-69
2022/08/18 10:11:07;;;;;;;19.95;17.92;;;21.70;99.90;;;;;;5027931;28;20037;-69
2022/08/18 10:13:57;;;;;;;18.10;16.20;;;22.10;99.90;;;;;;4966584;28;20510;-67
2022/08/18 10:16:34;;;;;;;21.10;18.90;;;22.30;99.90;;;;;;4966396;28;20047;-68
2022/08/18 10:19:09;;;;;;;21.73;19.48;;;22.50;99.90;;;;;;4966360;28;20074;-67
2022/08/18 10:21:59;;;;;;;23.27;20.98;;;22.60;99.90;;;;;;4965918;28;20034;-67
2022/08/18 10:24:40;;;;;;;30.58;25.92;;;22.60;99.90;;;;;;4966332;28;20066;-68
2022/08/18 10:27:31;;;;;;;26.23;23.52;;;22.60;99.90;;;;;;4966454;28;20719;-68
2022/08/18 10:29:57;;;;;;;22.75;20.40;;;22.60;99.90;;;;;;4965905;28;20074;-69
2022/08/18 10:32:36;;;;;;;25.13;22.63;;;22.60;99.90;;;;;;4966124;28;20501;-68
2022/08/18 10:35:03;;;;;;;28.05;25.15;;;22.70;99.90;;;;;;4965762;28;20085;-68
2022/08/18 10:37:37;;;;;;;26.17;23.38;;;22.70;99.90;;;;;;4950207;28;20035;-67
2022/08/18 10:40:09;;;;;;;26.67;23.98;;;22.50;99.90;;;;;;4966370;28;20089;-68
2022/08/18 10:42:52;;;;;;;28.10;24.77;;;22.60;99.90;;;;;;4969814;28;20038;-68
2022/08/18 10:45:44;;;;;;;27.10;23.95;;;22.70;99.90;;;;;;4953415;28;20054;-68
2022/08/18 10:48:09;;;;;;;26.40;23.70;;;23.00;99.90;;;;;;5000432;28;20053;-69
2022/08/18 10:50:57;;;;;;;28.33;25.33;;;23.10;99.90;;;;;;5009722;28;20046;-68
2022/08/18 10:53:41;;;;;;;26.98;24.17;;;23.20;99.90;;;;;;5026379;28;20522;-67
2022/08/18 10:56:30;;;;;;;28.48;25.58;;;22.90;99.90;;;;;;5026378;28;20038;-67
2022/08/18 10:59:15;;;;;;;28.48;25.58;;;22.70;99.90;;;;;;5005567;28;20137;-67
2022/08/18 11:02:15;;;;;;;30.77;26.05;;;22.60;99.90;;;;;;5011223;28;20772;-67
2022/08/18 11:04:45;;;;;;;26.60;23.90;;;22.70;99.90;;;;;;5010654;28;20030;-68
2022/08/18 11:07:18;;;;;;;25.88;23.15;;;22.70;99.90;;;;;;5009826;28;20092;-67
2022/08/18 11:09:48;;;;;;;25.48;22.75;;;22.90;99.90;;;;;;4995086;28;20038;-68
2022/08/18 11:12:16;;;;;;;23.30;20.88;;;23.10;99.90;;;;;;4991248;28;20026;-68
2022/08/18 11:15:05;;;;;;;23.75;21.25;;;23.10;99.90;;;;;;4991247;28;20035;-69
2022/08/18 11:17:41;;;;;;;23.63;21.10;;;23.10;99.90;;;;;;4990961;28;20062;-68
2022/08/18 11:20:10;;;;;;;28.33;25.42;;;23.10;99.90;;;;;;5020032;28;20068;-69
2022/08/18 11:22:36;;;;;;;27.80;24.83;;;22.80;99.90;;;;;;5030321;28;20052;-68
2022/08/18 11:25:17;;;;;;;26.23;23.42;;;22.80;99.90;;;;;;5028284;28;20029;-70
2022/08/18 11:27:45;;;;;;;26.10;23.35;;;23.00;99.90;;;;;;5029808;28;20029;-67
2022/08/18 11:30:11;;;;;;;30.05;26.83;;;23.20;99.90;;;;;;5030321;28;20037;-68
2022/08/18 11:32:39;;;;;;;31.65;28.23;;;23.30;99.90;;;;;;5029949;28;20112;-68
2022/08/18 11:35:05;;;;;;;28.48;25.42;;;23.20;99.90;;;;;;5030217;28;20187;-68
2022/08/18 11:37:40;;;;;;;28.20;25.38;;;23.10;99.90;;;;;;5029802;28;20743;-67
2022/08/18 11:40:34;;;;;;;30.17;26.98;;;23.00;99.90;;;;;;5029989;28;20083;-67
2022/08/18 11:43:08;;;;;;;30.45;27.15;;;22.90;99.90;;;;;;5030341;28;20030;-68
2022/08/18 11:45:57;;;;;;;28.50;25.48;;;22.70;99.90;;;;;;5030124;28;20484;-68
2022/08/18 11:48:27;;;;;;;28.48;25.08;;;22.60;99.90;;;;;;5028237;28;20065;-68
2022/08/18 11:51:00;;;;;;;29.20;26.20;;;22.70;99.90;;;;;;5029627;28;20476;-68
2022/08/18 11:53:32;;;;;;;30.02;26.25;;;22.80;99.90;;;;;;5030143;28;20037;-68
2022/08/18 11:56:13;;;;;;;31.50;27.98;;;23.00;99.90;;;;;;5028553;28;20104;-69
2022/08/18 11:58:44;;;;;;;27.38;24.45;;;23.40;99.90;;;;;;5029967;28;20076;-67
2022/08/18 12:01:31;;;;;;;28.02;25.10;;;23.50;99.90;;;;;;5029444;28;20116;-68
2022/08/18 12:04:20;;;;;;;27.60;24.70;;;23.50;99.90;;;;;;5021857;28;20052;-69
2022/08/18 12:06:55;;;;;;;;;;;23.60;99.90;;;;;;5028717;28;20056;-68
2022/08/18 12:09:45;;;;;;;26.45;23.67;;;23.70;99.90;;;;;;5029531;28;20669;-68
2022/08/18 12:12:24;;;;;;;25.65;22.83;;;23.70;99.90;;;;;;5029751;28;20140;-68
2022/08/18 12:15:00;;;;;;;22.45;20.15;;;23.50;99.90;;;;;;5029536;28;20391;-68
2022/08/18 12:17:28;;;;;;;21.90;19.55;;;23.60;99.90;;;;;;5027782;28;20121;-68
2022/08/18 12:19:56;;;;;;;24.55;22.05;;;23.70;99.90;;;;;;5029406;28;20060;-69
2022/08/18 12:22:25;;;;;;;24.35;21.95;;;24.00;99.90;;;;;;5029514;28;20044;-68
2022/08/18 12:24:51;;;;;;;19.48;17.48;;;23.80;99.90;;;;;;5029311;28;20113;-68
2022/08/18 12:27:24;;;;;;;24.17;21.67;;;23.90;99.90;;;;;;5029320;28;20411;-69
2022/08/18 12:29:51;;;;;;;23.08;20.77;;;24.00;99.90;;;;;;5029170;28;20072;-69
2022/08/18 12:32:18;;;;;;;21.60;19.30;;;24.10;99.90;;;;;;5021469;28;20048;-69
2022/08/18 12:34:45;;;;;;;21.38;19.15;;;24.10;99.90;;;;;;5017031;28;20044;-69
2022/08/18 12:37:18;;;;;;;23.25;19.92;;;24.10;99.90;;;;;;5017923;28;20102;-69
2022/08/18 12:39:44;;;;;;;21.35;19.05;;;24.30;99.90;;;;;;5028587;28;20037;-69
2022/08/18 12:42:11;;;;;;;22.67;20.35;;;24.60;99.90;;;;;;5005389;28;20083;-68
2022/08/18 12:44:37;;;;;;;21.15;18.95;;;24.70;99.90;;;;;;5022695;28;20072;-69
2022/08/18 12:47:09;;;;;;;23.20;20.80;;;24.70;99.90;;;;;;5022653;28;20029;-70
2022/08/18 12:49:34;;;;;;;23.25;19.42;;;24.60;99.90;;;;;;5019397;28;20038;-68
2022/08/18 12:52:00;;;;;;;21.02;18.80;;;24.70;99.90;;;;;;5022289;28;20043;-68
2022/08/18 12:54:26;;;;;;;22.33;19.83;;;24.60;99.90;;;;;;5026478;28;20517;-69
2022/08/18 12:56:55;;;;;;;21.45;19.15;;;24.40;99.90;;;;;;5018011;28;20029;-69
2022/08/18 12:59:21;;;;;;;22.98;20.63;;;24.40;99.90;;;;;;5022311;28;20052;-68
2022/08/18 13:01:46;;;;;;;18.95;17.15;;;24.60;99.90;;;;;;5024629;28;20498;-70
2022/08/18 13:04:12;;;;;;;19.00;17.00;;;24.60;99.90;;;;;;5024996;28;20468;-69
2022/08/18 13:06:43;;;;;;;17.92;16.00;;;24.50;99.90;;;;;;5028217;28;20037;-69
2022/08/18 13:09:09;;;;;;;16.95;15.20;;;24.60;99.90;;;;;;5027427;28;20030;-68
2022/08/18 13:11:34;;;;;;;17.42;15.52;;;24.50;99.90;;;;;;5025843;28;20095;-68
2022/08/18 13:14:00;;;;;;;19.70;16.30;;;24.40;99.90;;;;;;5027172;28;20041;-69